FDB2MY VAAH-OMDB
Flight info
| Callsign | FDB2MY |
|---|---|
| Flight time | N/A |
| Altitude | 38000 |
| Route | AAE L639 RASKI L301 RAGMA N571 VUSET A454 PASOV B540 KUPMA/N0377F240 B540 MIVEK P574 IMPED |
| Aircraft | B38M/M-SDE1FGHILORVWXY/HB1 |
Departure
| Time | N/A |
|---|---|
| Airport | Sardar Vallabh Patel International Airport (VAAH) |
Arrival
| Time | 2026-04-26 20:00 |
|---|---|
| Airport | Dubai International Airport (OMDB) |
| Time | Latitude | Longitude | Altitude | Speed | Heading |
|---|---|---|---|---|---|
| 2026-04-26 19:46 | 24.88112 | 56.20965 | 12722 ft | 292 kts | 287° |
| 2026-04-26 19:46 | 24.88751 | 56.18852 | 12413 ft | 289 kts | 288° |
| 2026-04-26 19:46 | 24.89383 | 56.16755 | 12104 ft | 287 kts | 287° |
| 2026-04-26 19:47 | 24.90011 | 56.14676 | 11791 ft | 285 kts | 288° |
| 2026-04-26 19:47 | 24.90425 | 56.13304 | 11592 ft | 283 kts | 288° |
| 2026-04-26 19:47 | 24.91250 | 56.10564 | 11194 ft | 281 kts | 288° |
| 2026-04-26 19:47 | 24.91856 | 56.08555 | 10899 ft | 279 kts | 288° |
| 2026-04-26 19:48 | 24.92463 | 56.06537 | 10628 ft | 276 kts | 288° |
| 2026-04-26 19:48 | 24.93063 | 56.04542 | 10413 ft | 272 kts | 288° |
| 2026-04-26 19:48 | 24.93655 | 56.02575 | 10171 ft | 269 kts | 288° |
| 2026-04-26 19:48 | 24.94218 | 56.00700 | 10021 ft | 263 kts | 288° |
| 2026-04-26 19:49 | 24.94790 | 55.98797 | 9753 ft | 261 kts | 288° |
| 2026-04-26 19:49 | 24.95359 | 55.96902 | 9433 ft | 260 kts | 288° |
| 2026-04-26 19:49 | 24.95925 | 55.95016 | 9118 ft | 259 kts | 288° |
| 2026-04-26 19:49 | 24.96491 | 55.93126 | 8820 ft | 258 kts | 289° |
| 2026-04-26 19:50 | 24.97052 | 55.91255 | 8527 ft | 256 kts | 289° |
| 2026-04-26 19:50 | 24.97608 | 55.89399 | 8239 ft | 254 kts | 289° |
| 2026-04-26 19:50 | 24.98154 | 55.87576 | 7952 ft | 253 kts | 289° |
| 2026-04-26 19:50 | 24.98705 | 55.85736 | 7670 ft | 251 kts | 289° |
| 2026-04-26 19:51 | 24.99251 | 55.83911 | 7386 ft | 250 kts | 289° |
| 2026-04-26 19:51 | 24.99853 | 55.82116 | 7090 ft | 249 kts | 298° |
| 2026-04-26 19:51 | 25.00742 | 55.80483 | 6788 ft | 248 kts | 302° |
| 2026-04-26 19:51 | 25.01649 | 55.78874 | 6510 ft | 246 kts | 302° |
| 2026-04-26 19:52 | 25.02538 | 55.77288 | 6239 ft | 245 kts | 302° |
| 2026-04-26 19:52 | 25.03438 | 55.75709 | 5944 ft | 244 kts | 303° |
| 2026-04-26 19:52 | 25.04350 | 55.74158 | 5642 ft | 243 kts | 302° |
| 2026-04-26 19:52 | 25.05249 | 55.72582 | 5374 ft | 241 kts | 302° |
| 2026-04-26 19:53 | 25.06126 | 55.71012 | 5109 ft | 240 kts | 302° |
| 2026-04-26 19:53 | 25.06996 | 55.69447 | 4829 ft | 238 kts | 302° |
| 2026-04-26 19:53 | 25.07858 | 55.67896 | 4628 ft | 234 kts | 302° |
| 2026-04-26 19:53 | 25.08692 | 55.66391 | 4481 ft | 226 kts | 302° |
| 2026-04-26 19:54 | 25.09500 | 55.64934 | 4364 ft | 218 kts | 301° |
| 2026-04-26 19:54 | 25.10276 | 55.63534 | 4232 ft | 210 kts | 301° |
| 2026-04-26 19:54 | 25.11022 | 55.62188 | 4125 ft | 200 kts | 301° |
| 2026-04-26 19:54 | 25.11722 | 55.60924 | 4102 ft | 186 kts | 301° |
| 2026-04-26 19:55 | 25.12359 | 55.59776 | 4069 ft | 169 kts | 302° |
| 2026-04-26 19:55 | 25.12964 | 55.58683 | 4033 ft | 166 kts | 302° |
| 2026-04-26 19:55 | 25.13562 | 55.57603 | 4009 ft | 164 kts | 302° |
| 2026-04-26 19:55 | 25.14146 | 55.56551 | 4027 ft | 157 kts | 302° |
| 2026-04-26 19:56 | 25.14710 | 55.55531 | 4000 ft | 155 kts | 302° |
| 2026-04-26 19:56 | 25.15273 | 55.54513 | 3775 ft | 157 kts | 302° |
| 2026-04-26 19:56 | 25.15845 | 55.53449 | 3146 ft | 164 kts | 300° |
| 2026-04-26 19:56 | 25.16408 | 55.52363 | 2678 ft | 160 kts | 300° |
| 2026-04-26 19:57 | 25.16982 | 55.51359 | 2403 ft | 150 kts | 303° |
| 2026-04-26 19:57 | 25.17529 | 55.50406 | 2210 ft | 146 kts | 301° |
| 2026-04-26 19:57 | 25.18055 | 55.49471 | 2060 ft | 140 kts | 303° |
| 2026-04-26 19:57 | 25.18580 | 55.48570 | 1923 ft | 139 kts | 303° |
| 2026-04-26 19:58 | 25.19079 | 55.47658 | 1698 ft | 137 kts | 301° |
| 2026-04-26 19:58 | 25.19556 | 55.46750 | 1451 ft | 137 kts | 301° |
| 2026-04-26 19:58 | 25.20065 | 55.45833 | 1291 ft | 145 kts | 302° |
| 2026-04-26 19:58 | 25.20594 | 55.44898 | 1066 ft | 140 kts | 302° |
| 2026-04-26 19:59 | 25.21094 | 55.44019 | 870 ft | 135 kts | 300° |
| 2026-04-26 19:59 | 25.21622 | 55.43052 | 713 ft | 153 kts | 299° |
| 2026-04-26 19:59 | 25.22147 | 55.42092 | 556 ft | 145 kts | 300° |
| 2026-04-26 19:59 | 25.22679 | 55.41136 | 383 ft | 145 kts | 300° |
| 2026-04-26 20:00 | 25.23216 | 55.40178 | 226 ft | 147 kts | 298° |
| 2026-04-26 20:00 | 25.23734 | 55.39227 | 50 ft | 138 kts | 300° |
| 2026-04-26 20:00 | 25.24187 | 55.38411 | 33 ft | 107 kts | 302° |
| 2026-04-26 20:00 | 25.24425 | 55.37986 | 33 ft | 45 kts | 301° |
| 2026-04-26 20:01 | 25.24604 | 55.37685 | 30 ft | 46 kts | 311° |
| 2026-04-26 20:01 | 25.24835 | 55.37507 | 28 ft | 38 kts | 331° |
| 2026-04-26 20:01 | 25.25015 | 55.37293 | 28 ft | 39 kts | 304° |
| 2026-04-26 20:01 | 25.25159 | 55.37034 | 27 ft | 40 kts | 302° |
| 2026-04-26 20:02 | 25.25304 | 55.36778 | 26 ft | 39 kts | 301° |
| 2026-04-26 20:02 | 25.25446 | 55.36522 | 27 ft | 36 kts | 301° |
| 2026-04-26 20:02 | 25.25551 | 55.36331 | 27 ft | 23 kts | 301° |
| 2026-04-26 20:02 | 25.25593 | 55.36259 | 27 ft | 13 kts | 303° |
| 2026-04-26 20:03 | 25.25619 | 55.36216 | 26 ft | 1 kts | 308° |
| 2026-04-26 20:03 | 25.25624 | 55.36214 | 26 ft | 2 kts | 353° |
| 2026-04-26 20:03 | 25.25652 | 55.36224 | 27 ft | 6 kts | 5° |
| 2026-04-26 20:03 | 25.25678 | 55.36199 | 28 ft | 0 kts | 279° |
| 2026-04-26 20:04 | 25.25679 | 55.36186 | 28 ft | 7 kts | 274° |
| 2026-04-26 20:04 | 25.25691 | 55.36110 | 26 ft | 3 kts | 358° |
| 2026-04-26 20:04 | 25.25738 | 55.36138 | 29 ft | 18 kts | 33° |
| 2026-04-26 20:04 | 25.25890 | 55.36241 | 30 ft | 34 kts | 32° |
| 2026-04-26 20:05 | 25.26087 | 55.36327 | 25 ft | 23 kts | 22° |
| 2026-04-26 20:05 | 25.26153 | 55.36369 | 26 ft | 3 kts | 32° |
| 2026-04-26 20:05 | 25.26154 | 55.36369 | 25 ft | 0 kts | 32° |